sensor_id;sensor_type;location;lat;lon;timestamp;temperature;humidity
73322;DHT22;61549;37.044;22.128;2023-01-24T00:00:48;15.90;60.30
73322;DHT22;61549;37.044;22.128;2023-01-24T00:03:14;15.90;60.40
73322;DHT22;61549;37.044;22.128;2023-01-24T00:05:46;15.90;60.60
73322;DHT22;61549;37.044;22.128;2023-01-24T00:08:13;15.80;60.80
73322;DHT22;61549;37.044;22.128;2023-01-24T00:10:39;15.70;60.70
73322;DHT22;61549;37.044;22.128;2023-01-24T00:13:05;15.70;60.80
73322;DHT22;61549;37.044;22.128;2023-01-24T00:15:32;15.70;60.80
73322;DHT22;61549;37.044;22.128;2023-01-24T00:17:58;15.60;60.80
73322;DHT22;61549;37.044;22.128;2023-01-24T00:20:24;15.60;61.30
73322;DHT22;61549;37.044;22.128;2023-01-24T00:22:50;15.50;61.40
73322;DHT22;61549;37.044;22.128;2023-01-24T00:25:16;15.50;61.50
73322;DHT22;61549;37.044;22.128;2023-01-24T00:27:42;15.50;61.50
73322;DHT22;61549;37.044;22.128;2023-01-24T00:30:08;15.50;61.40
73322;DHT22;61549;37.044;22.128;2023-01-24T00:32:34;15.40;61.20
73322;DHT22;61549;37.044;22.128;2023-01-24T00:35:00;15.40;61.60
73322;DHT22;61549;37.044;22.128;2023-01-24T00:37:26;15.40;62.00
73322;DHT22;61549;37.044;22.128;2023-01-24T00:39:52;15.40;62.30
73322;DHT22;61549;37.044;22.128;2023-01-24T00:42:18;15.50;62.00
73322;DHT22;61549;37.044;22.128;2023-01-24T00:44:44;15.40;62.20
73322;DHT22;61549;37.044;22.128;2023-01-24T00:47:10;15.50;62.10
73322;DHT22;61549;37.044;22.128;2023-01-24T00:49:36;15.50;62.10
73322;DHT22;61549;37.044;22.128;2023-01-24T00:52:01;15.50;62.20
73322;DHT22;61549;37.044;22.128;2023-01-24T00:54:27;15.50;62.40
73322;DHT22;61549;37.044;22.128;2023-01-24T00:56:53;15.50;62.70
73322;DHT22;61549;37.044;22.128;2023-01-24T00:59:19;15.50;62.50
73322;DHT22;61549;37.044;22.128;2023-01-24T01:01:45;15.50;62.70
73322;DHT22;61549;37.044;22.128;2023-01-24T01:04:10;15.50;63.10
73322;DHT22;61549;37.044;22.128;2023-01-24T01:06:36;15.40;63.10
73322;DHT22;61549;37.044;22.128;2023-01-24T01:09:03;15.50;63.30
73322;DHT22;61549;37.044;22.128;2023-01-24T01:11:28;15.50;63.20
73322;DHT22;61549;37.044;22.128;2023-01-24T01:13:55;15.50;63.20
73322;DHT22;61549;37.044;22.128;2023-01-24T01:16:23;15.50;63.20
73322;DHT22;61549;37.044;22.128;2023-01-24T01:18:52;15.60;63.60
73322;DHT22;61549;37.044;22.128;2023-01-24T01:21:20;15.50;63.70
73322;DHT22;61549;37.044;22.128;2023-01-24T01:23:46;15.60;63.50
73322;DHT22;61549;37.044;22.128;2023-01-24T01:26:18;15.60;63.50
73322;DHT22;61549;37.044;22.128;2023-01-24T01:28:44;15.60;63.40
73322;DHT22;61549;37.044;22.128;2023-01-24T01:31:11;15.60;63.30
73322;DHT22;61549;37.044;22.128;2023-01-24T01:33:37;15.60;63.10
73322;DHT22;61549;37.044;22.128;2023-01-24T01:36:03;15.50;63.40
73322;DHT22;61549;37.044;22.128;2023-01-24T01:38:29;15.50;63.60
73322;DHT22;61549;37.044;22.128;2023-01-24T01:50:53;15.60;63.30
73322;DHT22;61549;37.044;22.128;2023-01-24T01:53:21;15.60;63.40
73322;DHT22;61549;37.044;22.128;2023-01-24T01:55:51;15.50;63.90
73322;DHT22;61549;37.044;22.128;2023-01-24T01:58:20;15.60;64.20
73322;DHT22;61549;37.044;22.128;2023-01-24T02:00:48;15.60;63.80
73322;DHT22;61549;37.044;22.128;2023-01-24T02:03:19;15.60;63.30
73322;DHT22;61549;37.044;22.128;2023-01-24T02:08:55;15.60;63.40
73322;DHT22;61549;37.044;22.128;2023-01-24T02:11:22;15.60;63.90
73322;DHT22;61549;37.044;22.128;2023-01-24T02:14:09;15.60;64.30
73322;DHT22;61549;37.044;22.128;2023-01-24T02:16:54;15.70;62.40
73322;DHT22;61549;37.044;22.128;2023-01-24T02:22:15;15.20;63.20
73322;DHT22;61549;37.044;22.128;2023-01-24T02:27:35;15.20;65.00
73322;DHT22;61549;37.044;22.128;2023-01-24T02:30:01;15.00;65.70
73322;DHT22;61549;37.044;22.128;2023-01-24T02:35:49;15.10;66.50
73322;DHT22;61549;37.044;22.128;2023-01-24T02:38:22;15.00;66.80
73322;DHT22;61549;37.044;22.128;2023-01-24T02:40:51;15.00;67.30
73322;DHT22;61549;37.044;22.128;2023-01-24T02:43:19;15.00;67.30
73322;DHT22;61549;37.044;22.128;2023-01-24T02:45:46;15.10;67.00
73322;DHT22;61549;37.044;22.128;2023-01-24T02:48:11;15.30;66.40
73322;DHT22;61549;37.044;22.128;2023-01-24T02:50:37;15.10;66.40
73322;DHT22;61549;37.044;22.128;2023-01-24T02:53:22;15.10;66.50
73322;DHT22;61549;37.044;22.128;2023-01-24T02:55:55;15.20;66.10
73322;DHT22;61549;37.044;22.128;2023-01-24T02:58:47;15.30;66.00
73322;DHT22;61549;37.044;22.128;2023-01-24T03:01:13;15.40;66.30
73322;DHT22;61549;37.044;22.128;2023-01-24T03:03:44;15.50;65.30
73322;DHT22;61549;37.044;22.128;2023-01-24T03:06:14;15.60;64.90
73322;DHT22;61549;37.044;22.128;2023-01-24T03:08:41;15.60;65.20
73322;DHT22;61549;37.044;22.128;2023-01-24T03:11:07;15.70;65.30
73322;DHT22;61549;37.044;22.128;2023-01-24T03:13:34;15.80;64.40
73322;DHT22;61549;37.044;22.128;2023-01-24T03:16:19;15.80;64.50
73322;DHT22;61549;37.044;22.128;2023-01-24T03:19:03;15.70;64.60
73322;DHT22;61549;37.044;22.128;2023-01-24T03:21:48;15.80;64.40
73322;DHT22;61549;37.044;22.128;2023-01-24T03:24:33;15.80;63.90
73322;DHT22;61549;37.044;22.128;2023-01-24T03:27:17;15.90;63.90
73322;DHT22;61549;37.044;22.128;2023-01-24T03:30:03;15.90;64.10
73322;DHT22;61549;37.044;22.128;2023-01-24T03:32:48;15.90;63.60
73322;DHT22;61549;37.044;22.128;2023-01-24T03:35:32;15.80;63.80
73322;DHT22;61549;37.044;22.128;2023-01-24T03:37:58;15.80;63.50
73322;DHT22;61549;37.044;22.128;2023-01-24T03:43:53;15.80;63.30
73322;DHT22;61549;37.044;22.128;2023-01-24T03:46:19;15.80;63.50
73322;DHT22;61549;37.044;22.128;2023-01-24T03:48:45;15.80;63.30
73322;DHT22;61549;37.044;22.128;2023-01-24T03:51:11;15.80;63.40
73322;DHT22;61549;37.044;22.128;2023-01-24T03:53:55;15.80;63.50
73322;DHT22;61549;37.044;22.128;2023-01-24T03:56:22;15.80;63.50
73322;DHT22;61549;37.044;22.128;2023-01-24T03:58:48;15.70;63.50
73322;DHT22;61549;37.044;22.128;2023-01-24T04:01:14;15.70;63.50
73322;DHT22;61549;37.044;22.128;2023-01-24T04:03:40;15.70;63.60
73322;DHT22;61549;37.044;22.128;2023-01-24T04:06:05;15.70;63.70
73322;DHT22;61549;37.044;22.128;2023-01-24T04:08:31;15.60;63.80
73322;DHT22;61549;37.044;22.128;2023-01-24T04:10:57;15.60;63.30
73322;DHT22;61549;37.044;22.128;2023-01-24T04:13:24;15.60;63.10
73322;DHT22;61549;37.044;22.128;2023-01-24T04:15:49;15.60;63.10
73322;DHT22;61549;37.044;22.128;2023-01-24T04:18:15;15.60;62.90
73322;DHT22;61549;37.044;22.128;2023-01-24T04:20:41;15.50;62.90
73322;DHT22;61549;37.044;22.128;2023-01-24T04:23:07;15.50;62.80
73322;DHT22;61549;37.044;22.128;2023-01-24T04:25:34;15.40;62.80
73322;DHT22;61549;37.044;22.128;2023-01-24T04:28:02;15.50;62.60
73322;DHT22;61549;37.044;22.128;2023-01-24T04:30:28;15.50;62.30
73322;DHT22;61549;37.044;22.128;2023-01-24T04:32:55;15.50;62.60
73322;DHT22;61549;37.044;22.128;2023-01-24T04:35:24;15.50;62.20
73322;DHT22;61549;37.044;22.128;2023-01-24T04:38:07;15.50;62.20
73322;DHT22;61549;37.044;22.128;2023-01-24T04:40:33;15.50;62.00
73322;DHT22;61549;37.044;22.128;2023-01-24T04:42:59;15.40;62.00
73322;DHT22;61549;37.044;22.128;2023-01-24T04:45:32;15.40;62.20
73322;DHT22;61549;37.044;22.128;2023-01-24T04:47:58;15.30;61.90
73322;DHT22;61549;37.044;22.128;2023-01-24T04:50:24;15.30;62.00
73322;DHT22;61549;37.044;22.128;2023-01-24T04:52:50;15.30;62.20
73322;DHT22;61549;37.044;22.128;2023-01-24T04:55:16;15.20;62.00
73322;DHT22;61549;37.044;22.128;2023-01-24T04:57:42;15.10;62.10
73322;DHT22;61549;37.044;22.128;2023-01-24T05:00:09;15.10;62.10
73322;DHT22;61549;37.044;22.128;2023-01-24T05:02:35;15.00;62.00
73322;DHT22;61549;37.044;22.128;2023-01-24T05:05:03;15.00;62.00
73322;DHT22;61549;37.044;22.128;2023-01-24T05:07:29;15.00;62.00
73322;DHT22;61549;37.044;22.128;2023-01-24T05:09:55;15.00;61.90
73322;DHT22;61549;37.044;22.128;2023-01-24T05:12:21;15.00;62.00
73322;DHT22;61549;37.044;22.128;2023-01-24T05:14:47;15.00;61.80
73322;DHT22;61549;37.044;22.128;2023-01-24T05:17:13;15.00;61.40
73322;DHT22;61549;37.044;22.128;2023-01-24T05:19:38;15.00;61.40
73322;DHT22;61549;37.044;22.128;2023-01-24T05:22:04;15.10;61.50
73322;DHT22;61549;37.044;22.128;2023-01-24T05:24:30;15.00;61.50
73322;DHT22;61549;37.044;22.128;2023-01-24T05:26:56;15.00;61.40
73322;DHT22;61549;37.044;22.128;2023-01-24T05:29:22;15.00;61.20
73322;DHT22;61549;37.044;22.128;2023-01-24T05:31:48;15.00;61.30
73322;DHT22;61549;37.044;22.128;2023-01-24T05:34:13;14.90;61.00
73322;DHT22;61549;37.044;22.128;2023-01-24T05:36:39;14.90;60.70
73322;DHT22;61549;37.044;22.128;2023-01-24T05:39:05;14.90;60.40
73322;DHT22;61549;37.044;22.128;2023-01-24T05:41:31;14.90;59.90
73322;DHT22;61549;37.044;22.128;2023-01-24T05:43:57;14.90;59.80
73322;DHT22;61549;37.044;22.128;2023-01-24T05:46:23;15.00;59.80
73322;DHT22;61549;37.044;22.128;2023-01-24T05:48:53;15.00;60.00
73322;DHT22;61549;37.044;22.128;2023-01-24T05:51:19;15.00;59.50
73322;DHT22;61549;37.044;22.128;2023-01-24T05:53:45;15.00;59.40
73322;DHT22;61549;37.044;22.128;2023-01-24T05:56:16;14.90;59.10
73322;DHT22;61549;37.044;22.128;2023-01-24T05:58:43;15.00;59.60
73322;DHT22;61549;37.044;22.128;2023-01-24T06:01:19;15.00;60.20
73322;DHT22;61549;37.044;22.128;2023-01-24T06:03:47;15.00;59.80
73322;DHT22;61549;37.044;22.128;2023-01-24T06:06:14;15.10;59.50
73322;DHT22;61549;37.044;22.128;2023-01-24T06:08:41;15.10;59.10
73322;DHT22;61549;37.044;22.128;2023-01-24T06:11:15;15.00;58.40
73322;DHT22;61549;37.044;22.128;2023-01-24T06:13:42;15.00;58.50
73322;DHT22;61549;37.044;22.128;2023-01-24T06:16:14;15.10;58.60
73322;DHT22;61549;37.044;22.128;2023-01-24T06:18:40;15.20;58.40
73322;DHT22;61549;37.044;22.128;2023-01-24T06:21:11;15.20;58.90
73322;DHT22;61549;37.044;22.128;2023-01-24T06:23:40;15.30;58.60
73322;DHT22;61549;37.044;22.128;2023-01-24T06:26:10;15.30;58.30
73322;DHT22;61549;37.044;22.128;2023-01-24T06:28:38;15.30;58.20
73322;DHT22;61549;37.044;22.128;2023-01-24T06:37:21;15.40;57.00
73322;DHT22;61549;37.044;22.128;2023-01-24T06:39:52;15.40;57.30
73322;DHT22;61549;37.044;22.128;2023-01-24T06:42:19;15.40;57.50
73322;DHT22;61549;37.044;22.128;2023-01-24T06:44:46;15.40;57.00
73322;DHT22;61549;37.044;22.128;2023-01-24T06:47:12;15.50;56.80
73322;DHT22;61549;37.044;22.128;2023-01-24T06:49:38;15.50;56.90
73322;DHT22;61549;37.044;22.128;2023-01-24T06:52:05;15.70;56.80
73322;DHT22;61549;37.044;22.128;2023-01-24T06:54:36;15.90;56.00
73322;DHT22;61549;37.044;22.128;2023-01-24T06:57:03;16.10;55.10
73322;DHT22;61549;37.044;22.128;2023-01-24T06:59:29;16.30;56.50
73322;DHT22;61549;37.044;22.128;2023-01-24T07:01:55;16.60;57.20
73322;DHT22;61549;37.044;22.128;2023-01-24T07:04:20;16.80;57.80
73322;DHT22;61549;37.044;22.128;2023-01-24T07:06:46;17.00;57.00
73322;DHT22;61549;37.044;22.128;2023-01-24T07:09:18;17.10;58.00
73322;DHT22;61549;37.044;22.128;2023-01-24T07:11:44;17.30;55.80
73322;DHT22;61549;37.044;22.128;2023-01-24T07:14:10;17.60;56.00
73322;DHT22;61549;37.044;22.128;2023-01-24T07:16:43;17.80;54.30
73322;DHT22;61549;37.044;22.128;2023-01-24T07:19:17;17.90;54.70
73322;DHT22;61549;37.044;22.128;2023-01-24T07:21:44;18.10;53.90
73322;DHT22;61549;37.044;22.128;2023-01-24T07:24:29;18.30;53.00
73322;DHT22;61549;37.044;22.128;2023-01-24T07:26:56;18.50;53.20
73322;DHT22;61549;37.044;22.128;2023-01-24T07:29:23;18.60;55.60
73322;DHT22;61549;37.044;22.128;2023-01-24T07:31:49;18.80;54.90
73322;DHT22;61549;37.044;22.128;2023-01-24T07:34:16;18.90;51.90
73322;DHT22;61549;37.044;22.128;2023-01-24T07:36:43;19.00;50.80
73322;DHT22;61549;37.044;22.128;2023-01-24T07:39:09;19.20;48.80
73322;DHT22;61549;37.044;22.128;2023-01-24T07:41:36;19.30;49.00
73322;DHT22;61549;37.044;22.128;2023-01-24T07:44:02;19.50;48.50
73322;DHT22;61549;37.044;22.128;2023-01-24T07:46:33;19.50;47.40
73322;DHT22;61549;37.044;22.128;2023-01-24T07:48:59;19.60;46.10
73322;DHT22;61549;37.044;22.128;2023-01-24T07:51:25;19.80;47.10
73322;DHT22;61549;37.044;22.128;2023-01-24T07:53:51;19.80;45.40
73322;DHT22;61549;37.044;22.128;2023-01-24T07:56:17;19.90;45.50
73322;DHT22;61549;37.044;22.128;2023-01-24T07:58:43;20.00;46.20
73322;DHT22;61549;37.044;22.128;2023-01-24T08:01:09;20.10;43.60
73322;DHT22;61549;37.044;22.128;2023-01-24T08:03:40;20.30;43.60
73322;DHT22;61549;37.044;22.128;2023-01-24T08:06:06;20.40;43.90
73322;DHT22;61549;37.044;22.128;2023-01-24T08:08:32;20.40;44.20
73322;DHT22;61549;37.044;22.128;2023-01-24T08:10:58;20.50;44.40
73322;DHT22;61549;37.044;22.128;2023-01-24T08:13:24;20.60;43.50
73322;DHT22;61549;37.044;22.128;2023-01-24T08:15:49;20.70;43.10
73322;DHT22;61549;37.044;22.128;2023-01-24T08:18:15;20.70;45.60
73322;DHT22;61549;37.044;22.128;2023-01-24T08:20:43;20.80;46.70
73322;DHT22;61549;37.044;22.128;2023-01-24T08:23:09;21.00;47.20
73322;DHT22;61549;37.044;22.128;2023-01-24T08:25:34;21.10;47.70
73322;DHT22;61549;37.044;22.128;2023-01-24T08:28:00;21.10;47.30
73322;DHT22;61549;37.044;22.128;2023-01-24T08:30:35;21.20;47.30
73322;DHT22;61549;37.044;22.128;2023-01-24T08:33:05;21.30;46.60
73322;DHT22;61549;37.044;22.128;2023-01-24T08:35:32;21.30;46.50
73322;DHT22;61549;37.044;22.128;2023-01-24T08:37:58;21.40;45.90
73322;DHT22;61549;37.044;22.128;2023-01-24T08:40:25;21.50;46.00
73322;DHT22;61549;37.044;22.128;2023-01-24T08:42:51;21.60;46.60
73322;DHT22;61549;37.044;22.128;2023-01-24T08:45:17;21.60;46.40
73322;DHT22;61549;37.044;22.128;2023-01-24T08:47:43;21.80;45.10
73322;DHT22;61549;37.044;22.128;2023-01-24T08:50:09;21.90;46.10
73322;DHT22;61549;37.044;22.128;2023-01-24T08:52:35;22.00;45.90
73322;DHT22;61549;37.044;22.128;2023-01-24T08:55:01;22.00;46.00
73322;DHT22;61549;37.044;22.128;2023-01-24T08:57:27;22.10;45.80
73322;DHT22;61549;37.044;22.128;2023-01-24T08:59:53;22.10;45.40
73322;DHT22;61549;37.044;22.128;2023-01-24T09:02:19;22.20;45.80
73322;DHT22;61549;37.044;22.128;2023-01-24T09:04:44;22.30;46.70
73322;DHT22;61549;37.044;22.128;2023-01-24T09:07:11;22.40;45.90
73322;DHT22;61549;37.044;22.128;2023-01-24T09:09:37;22.60;45.30
73322;DHT22;61549;37.044;22.128;2023-01-24T09:12:03;22.50;45.00
73322;DHT22;61549;37.044;22.128;2023-01-24T09:14:29;22.60;44.30
73322;DHT22;61549;37.044;22.128;2023-01-24T09:16:55;22.60;44.60
73322;DHT22;61549;37.044;22.128;2023-01-24T09:19:22;22.70;43.80
73322;DHT22;61549;37.044;22.128;2023-01-24T09:21:52;22.70;44.40
73322;DHT22;61549;37.044;22.128;2023-01-24T09:24:22;22.80;43.60
73322;DHT22;61549;37.044;22.128;2023-01-24T09:26:48;22.80;43.70
73322;DHT22;61549;37.044;22.128;2023-01-24T09:29:14;22.90;44.60
73322;DHT22;61549;37.044;22.128;2023-01-24T09:31:40;22.90;44.20
73322;DHT22;61549;37.044;22.128;2023-01-24T09:34:06;23.00;44.40
73322;DHT22;61549;37.044;22.128;2023-01-24T09:36:32;23.00;44.40
73322;DHT22;61549;37.044;22.128;2023-01-24T09:38:59;22.90;45.20
73322;DHT22;61549;37.044;22.128;2023-01-24T09:50:46;23.20;43.90
73322;DHT22;61549;37.044;22.128;2023-01-24T09:53:23;23.10;43.40
73322;DHT22;61549;37.044;22.128;2023-01-24T09:55:50;23.30;42.50
73322;DHT22;61549;37.044;22.128;2023-01-24T09:58:39;23.20;43.70
73322;DHT22;61549;37.044;22.128;2023-01-24T10:01:23;23.30;43.40
73322;DHT22;61549;37.044;22.128;2023-01-24T10:03:49;23.40;43.30
73322;DHT22;61549;37.044;22.128;2023-01-24T10:06:25;23.30;44.10
73322;DHT22;61549;37.044;22.128;2023-01-24T10:09:16;23.40;44.90
73322;DHT22;61549;37.044;22.128;2023-01-24T10:18:10;23.90;44.10
73322;DHT22;61549;37.044;22.128;2023-01-24T10:23:24;23.60;44.00
73322;DHT22;61549;37.044;22.128;2023-01-24T10:26:17;23.30;44.10
73322;DHT22;61549;37.044;22.128;2023-01-24T10:28:51;23.40;44.90
73322;DHT22;61549;37.044;22.128;2023-01-24T10:31:36;23.40;43.10
73322;DHT22;61549;37.044;22.128;2023-01-24T10:34:38;23.40;43.50
73322;DHT22;61549;37.044;22.128;2023-01-24T10:37:24;23.40;43.70
73322;DHT22;61549;37.044;22.128;2023-01-24T10:39:51;23.20;44.10
73322;DHT22;61549;37.044;22.128;2023-01-24T10:42:29;23.40;44.20
73322;DHT22;61549;37.044;22.128;2023-01-24T10:45:03;23.70;44.30
73322;DHT22;61549;37.044;22.128;2023-01-24T10:47:52;23.70;44.50
73322;DHT22;61549;37.044;22.128;2023-01-24T10:50:22;23.70;43.70
73322;DHT22;61549;37.044;22.128;2023-01-24T10:56:01;23.60;43.10
73322;DHT22;61549;37.044;22.128;2023-01-24T11:01:04;23.60;43.10
73322;DHT22;61549;37.044;22.128;2023-01-24T11:03:32;23.60;43.20
73322;DHT22;61549;37.044;22.128;2023-01-24T11:06:01;23.50;42.70
73322;DHT22;61549;37.044;22.128;2023-01-24T11:08:36;23.60;42.10
73322;DHT22;61549;37.044;22.128;2023-01-24T11:11:15;23.60;42.30
73322;DHT22;61549;37.044;22.128;2023-01-24T11:13:44;23.50;41.70
73322;DHT22;61549;37.044;22.128;2023-01-24T11:18:57;23.50;43.10
73322;DHT22;61549;37.044;22.128;2023-01-24T11:21:25;23.40;43.10
73322;DHT22;61549;37.044;22.128;2023-01-24T11:26:36;23.40;42.50
73322;DHT22;61549;37.044;22.128;2023-01-24T11:29:05;23.60;42.90
73322;DHT22;61549;37.044;22.128;2023-01-24T11:31:39;23.60;41.50
73322;DHT22;61549;37.044;22.128;2023-01-24T11:42:39;23.60;42.80
73322;DHT22;61549;37.044;22.128;2023-01-24T11:48:21;23.70;42.30
73322;DHT22;61549;37.044;22.128;2023-01-24T11:51:05;23.50;42.40
73322;DHT22;61549;37.044;22.128;2023-01-24T11:57:08;23.00;43.10
73322;DHT22;61549;37.044;22.128;2023-01-24T12:08:10;22.80;45.20
73322;DHT22;61549;37.044;22.128;2023-01-24T12:13:58;23.00;44.40
73322;DHT22;61549;37.044;22.128;2023-01-24T12:16:30;23.10;44.60
73322;DHT22;61549;37.044;22.128;2023-01-24T12:22:17;23.00;44.10
73322;DHT22;61549;37.044;22.128;2023-01-24T12:24:51;22.80;44.70
73322;DHT22;61549;37.044;22.128;2023-01-24T12:27:23;22.50;45.40
73322;DHT22;61549;37.044;22.128;2023-01-24T12:32:53;22.10;46.00
73322;DHT22;61549;37.044;22.128;2023-01-24T12:35:31;22.40;46.80
73322;DHT22;61549;37.044;22.128;2023-01-24T12:38:16;22.40;45.80
73322;DHT22;61549;37.044;22.128;2023-01-24T12:40:49;22.30;46.60
73322;DHT22;61549;37.044;22.128;2023-01-24T12:46:16;22.50;46.10
73322;DHT22;61549;37.044;22.128;2023-01-24T12:48:50;22.50;46.10
73322;DHT22;61549;37.044;22.128;2023-01-24T12:51:43;22.40;46.60
73322;DHT22;61549;37.044;22.128;2023-01-24T12:54:19;22.40;47.40
73322;DHT22;61549;37.044;22.128;2023-01-24T12:57:01;22.30;46.60
73322;DHT22;61549;37.044;22.128;2023-01-24T12:59:33;21.90;47.70
73322;DHT22;61549;37.044;22.128;2023-01-24T13:02:31;21.80;48.10
73322;DHT22;61549;37.044;22.128;2023-01-24T13:13:28;21.50;48.60
73322;DHT22;61549;37.044;22.128;2023-01-24T13:18:47;21.40;49.20
73322;DHT22;61549;37.044;22.128;2023-01-24T13:24:33;21.10;50.20
73322;DHT22;61549;37.044;22.128;2023-01-24T13:27:44;20.90;50.30
73322;DHT22;61549;37.044;22.128;2023-01-24T13:33:03;21.10;50.20
73322;DHT22;61549;37.044;22.128;2023-01-24T13:35:30;21.30;50.20
73322;DHT22;61549;37.044;22.128;2023-01-24T13:40:29;21.40;50.10
73322;DHT22;61549;37.044;22.128;2023-01-24T13:43:03;21.60;49.80
73322;DHT22;61549;37.044;22.128;2023-01-24T13:45:47;21.70;49.00
73322;DHT22;61549;37.044;22.128;2023-01-24T13:51:32;21.80;49.00
73322;DHT22;61549;37.044;22.128;2023-01-24T13:54:03;21.80;49.90
73322;DHT22;61549;37.044;22.128;2023-01-24T13:56:30;21.70;49.60
73322;DHT22;61549;37.044;22.128;2023-01-24T13:58:57;21.80;49.50
73322;DHT22;61549;37.044;22.128;2023-01-24T14:01:23;21.90;49.20
73322;DHT22;61549;37.044;22.128;2023-01-24T14:03:58;21.80;48.60
73322;DHT22;61549;37.044;22.128;2023-01-24T14:06:25;21.80;48.90
73322;DHT22;61549;37.044;22.128;2023-01-24T14:11:59;22.00;48.10
73322;DHT22;61549;37.044;22.128;2023-01-24T14:14:57;21.90;47.60
73322;DHT22;61549;37.044;22.128;2023-01-24T14:20:21;22.20;48.00
73322;DHT22;61549;37.044;22.128;2023-01-24T14:22:52;22.20;47.20
73322;DHT22;61549;37.044;22.128;2023-01-24T14:28:16;22.20;47.20
73322;DHT22;61549;37.044;22.128;2023-01-24T14:30:47;22.20;47.50
73322;DHT22;61549;37.044;22.128;2023-01-24T14:39:21;22.20;47.00
73322;DHT22;61549;37.044;22.128;2023-01-24T14:41:57;22.40;48.20
73322;DHT22;61549;37.044;22.128;2023-01-24T14:44:24;22.40;48.50
73322;DHT22;61549;37.044;22.128;2023-01-24T14:47:02;22.40;48.80
73322;DHT22;61549;37.044;22.128;2023-01-24T14:49:35;22.30;47.90
73322;DHT22;61549;37.044;22.128;2023-01-24T14:52:13;22.30;47.60
73322;DHT22;61549;37.044;22.128;2023-01-24T14:54:47;22.30;46.20
73322;DHT22;61549;37.044;22.128;2023-01-24T14:57:22;22.40;45.70
73322;DHT22;61549;37.044;22.128;2023-01-24T15:02:53;22.30;47.60
73322;DHT22;61549;37.044;22.128;2023-01-24T15:05:26;22.20;47.60
73322;DHT22;61549;37.044;22.128;2023-01-24T15:07:53;22.10;46.70
73322;DHT22;61549;37.044;22.128;2023-01-24T15:12:58;21.90;47.10
73322;DHT22;61549;37.044;22.128;2023-01-24T15:15:25;21.90;48.50
73322;DHT22;61549;37.044;22.128;2023-01-24T15:17:57;21.80;48.20
73322;DHT22;61549;37.044;22.128;2023-01-24T15:20:24;21.80;48.40
73322;DHT22;61549;37.044;22.128;2023-01-24T15:22:53;21.70;48.70
73322;DHT22;61549;37.044;22.128;2023-01-24T15:25:22;21.60;49.40
73322;DHT22;61549;37.044;22.128;2023-01-24T15:27:50;21.40;50.10
73322;DHT22;61549;37.044;22.128;2023-01-24T15:30:21;21.30;50.20
73322;DHT22;61549;37.044;22.128;2023-01-24T15:33:00;21.30;51.20
73322;DHT22;61549;37.044;22.128;2023-01-24T15:38:12;21.10;52.20
73322;DHT22;61549;37.044;22.128;2023-01-24T15:40:56;21.00;52.80
73322;DHT22;61549;37.044;22.128;2023-01-24T15:43:38;20.80;53.60
73322;DHT22;61549;37.044;22.128;2023-01-24T15:49:31;20.40;55.00
73322;DHT22;61549;37.044;22.128;2023-01-24T15:52:04;20.10;55.30
73322;DHT22;61549;37.044;22.128;2023-01-24T15:54:30;19.90;56.10
73322;DHT22;61549;37.044;22.128;2023-01-24T15:56:59;19.80;56.50
73322;DHT22;61549;37.044;22.128;2023-01-24T15:59:27;19.70;56.90
73322;DHT22;61549;37.044;22.128;2023-01-24T16:01:53;19.60;57.00
73322;DHT22;61549;37.044;22.128;2023-01-24T16:04:21;19.50;57.30
73322;DHT22;61549;37.044;22.128;2023-01-24T16:06:48;19.50;57.30
73322;DHT22;61549;37.044;22.128;2023-01-24T16:09:15;19.50;57.30
73322;DHT22;61549;37.044;22.128;2023-01-24T16:11:43;19.40;57.40
73322;DHT22;61549;37.044;22.128;2023-01-24T16:14:21;19.30;57.50
73322;DHT22;61549;37.044;22.128;2023-01-24T16:16:47;19.20;57.60
73322;DHT22;61549;37.044;22.128;2023-01-24T16:19:19;19.10;58.00
73322;DHT22;61549;37.044;22.128;2023-01-24T16:21:46;19.10;58.00
73322;DHT22;61549;37.044;22.128;2023-01-24T16:24:13;19.00;58.00
73322;DHT22;61549;37.044;22.128;2023-01-24T16:26:44;19.00;58.20
73322;DHT22;61549;37.044;22.128;2023-01-24T16:29:18;18.90;58.10
73322;DHT22;61549;37.044;22.128;2023-01-24T16:31:45;18.70;58.30
73322;DHT22;61549;37.044;22.128;2023-01-24T16:34:12;18.70;58.50
73322;DHT22;61549;37.044;22.128;2023-01-24T16:36:38;18.70;58.40
73322;DHT22;61549;37.044;22.128;2023-01-24T16:39:05;18.60;58.50
73322;DHT22;61549;37.044;22.128;2023-01-24T16:41:32;18.70;58.50
73322;DHT22;61549;37.044;22.128;2023-01-24T16:44:00;18.60;58.30
73322;DHT22;61549;37.044;22.128;2023-01-24T16:46:26;18.70;58.20
73322;DHT22;61549;37.044;22.128;2023-01-24T16:48:52;18.70;58.80
73322;DHT22;61549;37.044;22.128;2023-01-24T16:51:19;18.70;58.10
73322;DHT22;61549;37.044;22.128;2023-01-24T16:53:45;18.70;58.00
73322;DHT22;61549;37.044;22.128;2023-01-24T16:56:11;18.70;58.30
73322;DHT22;61549;37.044;22.128;2023-01-24T16:58:37;18.70;57.60
73322;DHT22;61549;37.044;22.128;2023-01-24T17:01:09;18.70;57.60
73322;DHT22;61549;37.044;22.128;2023-01-24T17:03:36;18.70;57.40
73322;DHT22;61549;37.044;22.128;2023-01-24T17:06:11;18.70;57.50
73322;DHT22;61549;37.044;22.128;2023-01-24T17:08:39;18.70;57.50
73322;DHT22;61549;37.044;22.128;2023-01-24T17:11:06;18.60;57.60
73322;DHT22;61549;37.044;22.128;2023-01-24T17:13:33;18.50;57.80
73322;DHT22;61549;37.044;22.128;2023-01-24T17:16:06;18.50;57.60
73322;DHT22;61549;37.044;22.128;2023-01-24T17:18:34;18.50;57.50
73322;DHT22;61549;37.044;22.128;2023-01-24T17:21:05;18.50;57.30
73322;DHT22;61549;37.044;22.128;2023-01-24T17:23:32;18.40;57.20
73322;DHT22;61549;37.044;22.128;2023-01-24T17:26:03;18.40;57.00
73322;DHT22;61549;37.044;22.128;2023-01-24T17:28:30;18.40;57.10
73322;DHT22;61549;37.044;22.128;2023-01-24T17:30:56;18.40;56.90
73322;DHT22;61549;37.044;22.128;2023-01-24T17:33:22;18.50;56.80
73322;DHT22;61549;37.044;22.128;2023-01-24T17:35:48;18.50;56.80
73322;DHT22;61549;37.044;22.128;2023-01-24T17:38:14;18.50;56.70
73322;DHT22;61549;37.044;22.128;2023-01-24T17:40:40;18.40;56.40
73322;DHT22;61549;37.044;22.128;2023-01-24T17:43:06;18.30;56.60
73322;DHT22;61549;37.044;22.128;2023-01-24T17:45:32;18.20;56.70
73322;DHT22;61549;37.044;22.128;2023-01-24T17:48:00;18.20;56.80
73322;DHT22;61549;37.044;22.128;2023-01-24T17:50:26;18.10;56.70
73322;DHT22;61549;37.044;22.128;2023-01-24T17:52:52;18.10;56.70
73322;DHT22;61549;37.044;22.128;2023-01-24T17:55:18;18.10;56.40
73322;DHT22;61549;37.044;22.128;2023-01-24T17:57:43;18.10;56.60